sensor_id;sensor_type;location;lat;lon;timestamp;pressure;altitude;pressure_sealevel;temperature;humidity
75945;BME280;64628;50.104;14.614;2023-03-13T00:01:55;98107.26;;;10.44;44.67
75945;BME280;64628;50.104;14.614;2023-03-13T00:04:21;98110.02;;;10.07;44.53
75945;BME280;64628;50.104;14.614;2023-03-13T00:06:46;98108.93;;;10.02;44.61
75945;BME280;64628;50.104;14.614;2023-03-13T00:09:14;98109.99;;;10.13;44.77
75945;BME280;64628;50.104;14.614;2023-03-13T00:11:37;98114.32;;;10.01;44.61
75945;BME280;64628;50.104;14.614;2023-03-13T00:14:04;98113.43;;;10.35;44.87
75945;BME280;64628;50.104;14.614;2023-03-13T00:16:28;98112.26;;;10.17;44.75
75945;BME280;64628;50.104;14.614;2023-03-13T00:18:54;98112.89;;;10.21;44.24
75945;BME280;64628;50.104;14.614;2023-03-13T00:21:20;98115.53;;;10.41;44.34
75945;BME280;64628;50.104;14.614;2023-03-13T00:23:45;98106.64;;;10.35;43.96
75945;BME280;64628;50.104;14.614;2023-03-13T00:26:12;98112.68;;;9.67;45.05
75945;BME280;64628;50.104;14.614;2023-03-13T00:28:37;98107.03;;;10.44;44.55
75945;BME280;64628;50.104;14.614;2023-03-13T00:31:02;98109.41;;;10.33;44.78
75945;BME280;64628;50.104;14.614;2023-03-13T00:33:26;98106.34;;;9.99;44.57
75945;BME280;64628;50.104;14.614;2023-03-13T00:35:56;98104.67;;;10.33;44.34
75945;BME280;64628;50.104;14.614;2023-03-13T00:38:17;98094.96;;;10.48;44.38
75945;BME280;64628;50.104;14.614;2023-03-13T00:40:43;98092.85;;;10.52;44.20
75945;BME280;64628;50.104;14.614;2023-03-13T00:43:08;98092.87;;;10.59;44.20
75945;BME280;64628;50.104;14.614;2023-03-13T00:45:34;98091.54;;;9.93;45.06
75945;BME280;64628;50.104;14.614;2023-03-13T00:47:59;98090.92;;;10.07;44.71
75945;BME280;64628;50.104;14.614;2023-03-13T00:50:24;98093.30;;;10.37;44.17
75945;BME280;64628;50.104;14.614;2023-03-13T00:52:50;98089.82;;;10.23;43.85
75945;BME280;64628;50.104;14.614;2023-03-13T00:55:15;98086.21;;;10.21;43.90
75945;BME280;64628;50.104;14.614;2023-03-13T00:57:41;98090.13;;;10.84;43.32
75945;BME280;64628;50.104;14.614;2023-03-13T01:00:08;98085.76;;;10.26;43.67
75945;BME280;64628;50.104;14.614;2023-03-13T01:02:32;98085.64;;;10.24;43.77
75945;BME280;64628;50.104;14.614;2023-03-13T01:04:58;98084.72;;;10.07;44.00
75945;BME280;64628;50.104;14.614;2023-03-13T01:07:23;98083.73;;;10.13;43.57
75945;BME280;64628;50.104;14.614;2023-03-13T01:09:48;98083.03;;;10.54;43.20
75945;BME280;64628;50.104;14.614;2023-03-13T01:12:14;98080.99;;;10.36;43.69
75945;BME280;64628;50.104;14.614;2023-03-13T01:14:39;98079.66;;;10.50;43.52
75945;BME280;64628;50.104;14.614;2023-03-13T01:17:04;98086.53;;;10.61;43.28
75945;BME280;64628;50.104;14.614;2023-03-13T01:19:30;98080.14;;;10.25;43.44
75945;BME280;64628;50.104;14.614;2023-03-13T01:21:55;98078.90;;;9.94;43.54
75945;BME280;64628;50.104;14.614;2023-03-13T01:24:20;98084.00;;;10.33;43.28
75945;BME280;64628;50.104;14.614;2023-03-13T01:26:46;98093.08;;;10.56;43.38
75945;BME280;64628;50.104;14.614;2023-03-13T01:29:11;98091.71;;;10.34;43.34
75945;BME280;64628;50.104;14.614;2023-03-13T01:31:36;98077.61;;;10.56;43.38
75945;BME280;64628;50.104;14.614;2023-03-13T01:34:04;98080.34;;;10.25;44.00
75945;BME280;64628;50.104;14.614;2023-03-13T01:36:27;98082.44;;;10.33;43.94
75945;BME280;64628;50.104;14.614;2023-03-13T01:38:54;98088.02;;;10.15;43.90
75945;BME280;64628;50.104;14.614;2023-03-13T01:41:19;98086.54;;;10.75;43.67
75945;BME280;64628;50.104;14.614;2023-03-13T01:43:44;98084.08;;;10.16;43.53
75945;BME280;64628;50.104;14.614;2023-03-13T01:46:13;98083.13;;;10.75;43.39
75945;BME280;64628;50.104;14.614;2023-03-13T01:48:41;98089.78;;;10.42;43.16
75945;BME280;64628;50.104;14.614;2023-03-13T01:51:03;98085.36;;;10.58;43.23
75945;BME280;64628;50.104;14.614;2023-03-13T01:53:26;98077.15;;;10.25;43.71
75945;BME280;64628;50.104;14.614;2023-03-13T01:55:52;98078.11;;;10.96;43.02
75945;BME280;64628;50.104;14.614;2023-03-13T01:58:16;98076.25;;;10.46;42.86
75945;BME280;64628;50.104;14.614;2023-03-13T02:00:42;98071.47;;;10.64;43.00
75945;BME280;64628;50.104;14.614;2023-03-13T02:03:10;98066.33;;;10.88;42.60
75945;BME280;64628;50.104;14.614;2023-03-13T02:05:32;98059.33;;;10.78;42.37
75945;BME280;64628;50.104;14.614;2023-03-13T02:08:00;98059.33;;;10.99;42.69
75945;BME280;64628;50.104;14.614;2023-03-13T02:10:24;98057.83;;;10.87;42.48
75945;BME280;64628;50.104;14.614;2023-03-13T02:12:48;98053.55;;;10.91;42.72
75945;BME280;64628;50.104;14.614;2023-03-13T02:15:15;98052.65;;;10.78;42.51
75945;BME280;64628;50.104;14.614;2023-03-13T02:17:40;98055.25;;;10.68;42.67
75945;BME280;64628;50.104;14.614;2023-03-13T02:20:05;98058.46;;;10.34;42.81
75945;BME280;64628;50.104;14.614;2023-03-13T02:22:32;98056.20;;;10.54;42.94
75945;BME280;64628;50.104;14.614;2023-03-13T02:24:59;98057.75;;;10.55;42.92
75945;BME280;64628;50.104;14.614;2023-03-13T02:27:19;98058.21;;;10.59;42.84
75945;BME280;64628;50.104;14.614;2023-03-13T02:29:45;98061.51;;;10.88;42.79
75945;BME280;64628;50.104;14.614;2023-03-13T02:32:10;98062.26;;;10.59;42.46
75945;BME280;64628;50.104;14.614;2023-03-13T02:34:38;98064.30;;;10.64;42.40
75945;BME280;64628;50.104;14.614;2023-03-13T02:37:02;98069.02;;;10.77;42.20
75945;BME280;64628;50.104;14.614;2023-03-13T02:39:27;98071.51;;;10.44;42.27
75945;BME280;64628;50.104;14.614;2023-03-13T02:41:52;98068.00;;;10.57;42.47
75945;BME280;64628;50.104;14.614;2023-03-13T02:44:17;98069.08;;;11.05;42.44
75945;BME280;64628;50.104;14.614;2023-03-13T02:46:44;98073.83;;;10.63;42.78
75945;BME280;64628;50.104;14.614;2023-03-13T02:49:20;98067.56;;;10.46;43.08
75945;BME280;64628;50.104;14.614;2023-03-13T02:51:36;98061.88;;;10.46;43.11
75945;BME280;64628;50.104;14.614;2023-03-13T02:54:02;98055.61;;;10.56;42.97
75945;BME280;64628;50.104;14.614;2023-03-13T02:56:26;98058.10;;;10.74;42.60
75945;BME280;64628;50.104;14.614;2023-03-13T02:58:50;98054.94;;;10.77;42.57
75945;BME280;64628;50.104;14.614;2023-03-13T03:01:15;98061.20;;;10.33;42.83
75945;BME280;64628;50.104;14.614;2023-03-13T03:03:40;98054.27;;;10.66;42.64
75945;BME280;64628;50.104;14.614;2023-03-13T03:06:06;98058.38;;;10.64;42.66
75945;BME280;64628;50.104;14.614;2023-03-13T03:08:31;98063.72;;;10.57;42.68
75945;BME280;64628;50.104;14.614;2023-03-13T03:10:57;98060.70;;;10.85;42.66
75945;BME280;64628;50.104;14.614;2023-03-13T03:13:22;98061.94;;;10.62;42.64
75945;BME280;64628;50.104;14.614;2023-03-13T03:15:47;98059.99;;;10.63;42.59
75945;BME280;64628;50.104;14.614;2023-03-13T03:18:13;98056.77;;;10.66;42.55
75945;BME280;64628;50.104;14.614;2023-03-13T03:20:38;98051.58;;;10.31;42.66
75945;BME280;64628;50.104;14.614;2023-03-13T03:23:03;98043.28;;;10.66;42.82
75945;BME280;64628;50.104;14.614;2023-03-13T03:25:29;98037.50;;;10.69;42.79
75945;BME280;64628;50.104;14.614;2023-03-13T03:27:54;98033.87;;;10.03;43.07
75945;BME280;64628;50.104;14.614;2023-03-13T03:30:20;98033.41;;;10.65;43.23
75945;BME280;64628;50.104;14.614;2023-03-13T03:32:46;98032.09;;;10.65;42.90
75945;BME280;64628;50.104;14.614;2023-03-13T03:35:11;98028.77;;;10.38;42.98
75945;BME280;64628;50.104;14.614;2023-03-13T03:37:36;98031.45;;;10.60;42.59
75945;BME280;64628;50.104;14.614;2023-03-13T03:40:02;98033.50;;;10.75;42.70
75945;BME280;64628;50.104;14.614;2023-03-13T03:42:26;98028.61;;;10.52;42.69
75945;BME280;64628;50.104;14.614;2023-03-13T03:44:52;98029.69;;;10.78;42.70
75945;BME280;64628;50.104;14.614;2023-03-13T03:47:18;98026.20;;;10.34;43.00
75945;BME280;64628;50.104;14.614;2023-03-13T03:49:43;98022.35;;;10.40;42.91
75945;BME280;64628;50.104;14.614;2023-03-13T03:52:08;98020.01;;;10.37;42.96
75945;BME280;64628;50.104;14.614;2023-03-13T03:54:34;98016.40;;;10.30;43.05
75945;BME280;64628;50.104;14.614;2023-03-13T03:56:59;98017.45;;;10.26;43.15
75945;BME280;64628;50.104;14.614;2023-03-13T03:59:24;98021.18;;;10.30;43.14
75945;BME280;64628;50.104;14.614;2023-03-13T04:01:50;98017.53;;;10.19;43.36
75945;BME280;64628;50.104;14.614;2023-03-13T04:04:15;98014.50;;;10.33;43.12
75945;BME280;64628;50.104;14.614;2023-03-13T04:06:40;98015.73;;;10.50;42.85
75945;BME280;64628;50.104;14.614;2023-03-13T04:09:06;98014.73;;;10.59;42.69
75945;BME280;64628;50.104;14.614;2023-03-13T04:11:31;98010.15;;;10.48;42.85
75945;BME280;64628;50.104;14.614;2023-03-13T04:13:56;98012.15;;;10.30;43.13
75945;BME280;64628;50.104;14.614;2023-03-13T04:16:22;98010.63;;;10.58;42.76
75945;BME280;64628;50.104;14.614;2023-03-13T04:18:47;98005.65;;;10.65;42.89
75945;BME280;64628;50.104;14.614;2023-03-13T04:21:13;98005.80;;;10.63;42.64
75945;BME280;64628;50.104;14.614;2023-03-13T04:23:38;97997.78;;;10.77;42.40
75945;BME280;64628;50.104;14.614;2023-03-13T04:26:04;97997.37;;;10.93;42.50
75945;BME280;64628;50.104;14.614;2023-03-13T04:28:29;97989.42;;;10.69;42.47
75945;BME280;64628;50.104;14.614;2023-03-13T04:30:54;97989.00;;;10.90;42.14
75945;BME280;64628;50.104;14.614;2023-03-13T04:33:19;97991.23;;;10.83;42.21
75945;BME280;64628;50.104;14.614;2023-03-13T04:35:45;97993.94;;;11.17;42.05
75945;BME280;64628;50.104;14.614;2023-03-13T04:38:10;97989.84;;;10.24;42.39
75945;BME280;64628;50.104;14.614;2023-03-13T04:40:36;97985.03;;;10.47;42.34
75945;BME280;64628;50.104;14.614;2023-03-13T04:43:01;97979.87;;;10.86;42.12
75945;BME280;64628;50.104;14.614;2023-03-13T04:45:27;97973.74;;;10.67;42.07
75945;BME280;64628;50.104;14.614;2023-03-13T04:47:52;97969.40;;;10.67;42.32
75945;BME280;64628;50.104;14.614;2023-03-13T04:50:17;97969.75;;;10.86;42.06
75945;BME280;64628;50.104;14.614;2023-03-13T04:52:42;97966.09;;;10.67;42.26
75945;BME280;64628;50.104;14.614;2023-03-13T04:55:08;97959.82;;;10.62;42.38
75945;BME280;64628;50.104;14.614;2023-03-13T04:57:34;97961.90;;;10.69;42.30
75945;BME280;64628;50.104;14.614;2023-03-13T04:59:59;97958.72;;;10.34;42.45
75945;BME280;64628;50.104;14.614;2023-03-13T05:02:25;97956.00;;;10.80;42.43
75945;BME280;64628;50.104;14.614;2023-03-13T05:04:50;97954.90;;;10.58;42.34
75945;BME280;64628;50.104;14.614;2023-03-13T05:07:15;97954.70;;;10.46;42.54
75945;BME280;64628;50.104;14.614;2023-03-13T05:09:40;97954.51;;;10.52;42.35
75945;BME280;64628;50.104;14.614;2023-03-13T05:12:06;97944.14;;;10.42;42.58
75945;BME280;64628;50.104;14.614;2023-03-13T05:14:30;97934.58;;;10.44;42.81
75945;BME280;64628;50.104;14.614;2023-03-13T05:16:56;97935.99;;;10.81;42.18
75945;BME280;64628;50.104;14.614;2023-03-13T05:19:22;97933.35;;;10.63;42.08
75945;BME280;64628;50.104;14.614;2023-03-13T05:21:47;97931.58;;;10.62;41.74
75945;BME280;64628;50.104;14.614;2023-03-13T05:24:12;97929.96;;;10.84;41.72
75945;BME280;64628;50.104;14.614;2023-03-13T05:26:38;97927.76;;;10.88;41.65
75945;BME280;64628;50.104;14.614;2023-03-13T05:29:03;97932.99;;;10.62;42.05
75945;BME280;64628;50.104;14.614;2023-03-13T05:31:28;97931.35;;;10.69;42.53
75945;BME280;64628;50.104;14.614;2023-03-13T05:33:54;97926.43;;;10.21;42.24
75945;BME280;64628;50.104;14.614;2023-03-13T05:36:19;97918.63;;;10.57;42.43
75945;BME280;64628;50.104;14.614;2023-03-13T05:38:44;97916.09;;;10.67;42.25
75945;BME280;64628;50.104;14.614;2023-03-13T05:41:10;97905.66;;;10.34;42.05
75945;BME280;64628;50.104;14.614;2023-03-13T05:43:35;97904.86;;;10.38;42.27
75945;BME280;64628;50.104;14.614;2023-03-13T05:46:00;97901.62;;;10.40;42.63
75945;BME280;64628;50.104;14.614;2023-03-13T05:48:26;97887.51;;;10.19;42.86
75945;BME280;64628;50.104;14.614;2023-03-13T05:50:52;97887.53;;;10.05;42.73
75945;BME280;64628;50.104;14.614;2023-03-13T05:53:16;97876.81;;;10.58;41.90
75945;BME280;64628;50.104;14.614;2023-03-13T05:55:42;97871.12;;;10.58;41.90
75945;BME280;64628;50.104;14.614;2023-03-13T05:58:07;97870.70;;;10.60;42.26
75945;BME280;64628;50.104;14.614;2023-03-13T06:00:32;97878.42;;;10.48;42.04
75945;BME280;64628;50.104;14.614;2023-03-13T06:02:58;97872.06;;;10.55;41.56
75945;BME280;64628;50.104;14.614;2023-03-13T06:05:23;97874.13;;;10.76;41.53
75945;BME280;64628;50.104;14.614;2023-03-13T06:07:49;97870.67;;;10.62;41.78
75945;BME280;64628;50.104;14.614;2023-03-13T06:10:14;97877.31;;;10.30;42.20
75945;BME280;64628;50.104;14.614;2023-03-13T06:12:39;97874.90;;;10.21;42.34
75945;BME280;64628;50.104;14.614;2023-03-13T06:15:06;97863.18;;;10.79;42.17
75945;BME280;64628;50.104;14.614;2023-03-13T06:17:30;97860.43;;;10.51;41.61
75945;BME280;64628;50.104;14.614;2023-03-13T06:19:56;97857.41;;;10.70;41.68
75945;BME280;64628;50.104;14.614;2023-03-13T06:22:21;97859.70;;;10.83;41.47
75945;BME280;64628;50.104;14.614;2023-03-13T06:24:46;97857.04;;;10.82;41.16
75945;BME280;64628;50.104;14.614;2023-03-13T06:27:12;97859.52;;;11.09;40.74
75945;BME280;64628;50.104;14.614;2023-03-13T06:29:37;97854.96;;;11.32;40.74
75945;BME280;64628;50.104;14.614;2023-03-13T06:32:02;97855.94;;;10.76;40.96
75945;BME280;64628;50.104;14.614;2023-03-13T06:34:28;97850.06;;;11.08;40.66
75945;BME280;64628;50.104;14.614;2023-03-13T06:36:53;97852.96;;;11.06;41.10
75945;BME280;64628;50.104;14.614;2023-03-13T06:39:18;97854.13;;;10.69;41.24
75945;BME280;64628;50.104;14.614;2023-03-13T06:41:44;97851.04;;;11.04;41.13
75945;BME280;64628;50.104;14.614;2023-03-13T06:44:09;97848.32;;;11.11;40.64
75945;BME280;64628;50.104;14.614;2023-03-13T06:46:35;97848.01;;;10.73;40.78
75945;BME280;64628;50.104;14.614;2023-03-13T06:49:00;97843.11;;;11.00;40.32
75945;BME280;64628;50.104;14.614;2023-03-13T06:51:25;97843.66;;;11.15;40.75
75945;BME280;64628;50.104;14.614;2023-03-13T06:53:51;97835.76;;;10.97;40.29
75945;BME280;64628;50.104;14.614;2023-03-13T06:56:16;97830.86;;;11.54;40.16
75945;BME280;64628;50.104;14.614;2023-03-13T06:58:41;97830.40;;;11.60;39.95
75945;BME280;64628;50.104;14.614;2023-03-13T07:01:08;97827.95;;;11.39;39.64
75945;BME280;64628;50.104;14.614;2023-03-13T07:03:32;97828.15;;;11.55;39.53
75945;BME280;64628;50.104;14.614;2023-03-13T07:05:57;97832.85;;;12.08;39.08
75945;BME280;64628;50.104;14.614;2023-03-13T07:08:22;97827.53;;;11.52;39.25
75945;BME280;64628;50.104;14.614;2023-03-13T07:10:47;97822.21;;;11.25;39.59
75945;BME280;64628;50.104;14.614;2023-03-13T07:13:12;97829.89;;;11.32;39.99
75945;BME280;64628;50.104;14.614;2023-03-13T07:15:38;97829.44;;;10.99;40.33
75945;BME280;64628;50.104;14.614;2023-03-13T07:18:03;97837.39;;;10.78;40.94
75945;BME280;64628;50.104;14.614;2023-03-13T07:20:29;97830.17;;;11.18;40.44
75945;BME280;64628;50.104;14.614;2023-03-13T07:22:54;97836.13;;;10.75;40.96
75945;BME280;64628;50.104;14.614;2023-03-13T07:25:19;97830.71;;;11.43;40.34
75945;BME280;64628;50.104;14.614;2023-03-13T07:27:45;97832.65;;;11.26;39.91
75945;BME280;64628;50.104;14.614;2023-03-13T07:30:11;97829.15;;;11.36;39.73
75945;BME280;64628;50.104;14.614;2023-03-13T07:32:35;97824.48;;;11.57;39.49
75945;BME280;64628;50.104;14.614;2023-03-13T07:35:01;97815.45;;;11.54;39.65
75945;BME280;64628;50.104;14.614;2023-03-13T07:37:26;97812.45;;;11.22;39.76
75945;BME280;64628;50.104;14.614;2023-03-13T07:39:51;97807.77;;;11.52;40.07
75945;BME280;64628;50.104;14.614;2023-03-13T07:42:17;97803.95;;;11.36;39.80
75945;BME280;64628;50.104;14.614;2023-03-13T07:44:42;97799.98;;;11.26;39.67
75945;BME280;64628;50.104;14.614;2023-03-13T07:47:07;97804.60;;;11.51;39.53
75945;BME280;64628;50.104;14.614;2023-03-13T07:49:32;97807.14;;;11.37;39.74
75945;BME280;64628;50.104;14.614;2023-03-13T07:51:57;97791.82;;;11.24;39.96
75945;BME280;64628;50.104;14.614;2023-03-13T07:54:23;97788.18;;;11.33;40.11
75945;BME280;64628;50.104;14.614;2023-03-13T07:56:48;97788.65;;;11.34;40.71
75945;BME280;64628;50.104;14.614;2023-03-13T07:59:13;97785.56;;;11.50;40.23
75945;BME280;64628;50.104;14.614;2023-03-13T08:01:39;97779.50;;;11.73;40.55
75945;BME280;64628;50.104;14.614;2023-03-13T08:04:04;97768.57;;;11.47;40.51
75945;BME280;64628;50.104;14.614;2023-03-13T08:06:31;97762.57;;;11.60;41.05
75945;BME280;64628;50.104;14.614;2023-03-13T08:08:57;97770.18;;;11.91;40.43
75945;BME280;64628;50.104;14.614;2023-03-13T08:11:22;97759.88;;;11.66;40.98
75945;BME280;64628;50.104;14.614;2023-03-13T08:13:46;97757.21;;;11.82;40.26
75945;BME280;64628;50.104;14.614;2023-03-13T08:16:12;97755.08;;;11.58;40.57
75945;BME280;64628;50.104;14.614;2023-03-13T08:18:38;97749.37;;;12.05;40.10
75945;BME280;64628;50.104;14.614;2023-03-13T08:21:04;97745.96;;;12.31;39.48
75945;BME280;64628;50.104;14.614;2023-03-13T08:23:27;97736.87;;;11.66;40.44
75945;BME280;64628;50.104;14.614;2023-03-13T08:25:52;97739.58;;;11.93;40.16
75945;BME280;64628;50.104;14.614;2023-03-13T08:28:17;97744.83;;;11.55;40.86
75945;BME280;64628;50.104;14.614;2023-03-13T08:30:43;97737.34;;;11.39;41.17
75945;BME280;64628;50.104;14.614;2023-03-13T08:33:08;97717.32;;;11.71;40.73
75945;BME280;64628;50.104;14.614;2023-03-13T08:35:34;97721.87;;;10.96;41.93
75945;BME280;64628;50.104;14.614;2023-03-13T08:37:59;97716.51;;;11.29;41.71
75945;BME280;64628;50.104;14.614;2023-03-13T08:40:25;97717.68;;;11.72;41.52
75945;BME280;64628;50.104;14.614;2023-03-13T08:42:50;97700.63;;;11.35;41.57
75945;BME280;64628;50.104;14.614;2023-03-13T08:45:15;97702.35;;;12.45;40.35
75945;BME280;64628;50.104;14.614;2023-03-13T08:47:41;97694.05;;;13.04;39.44
75945;BME280;64628;50.104;14.614;2023-03-13T08:50:07;97697.48;;;12.97;38.61
75945;BME280;64628;50.104;14.614;2023-03-13T08:52:31;97703.14;;;13.06;38.31
75945;BME280;64628;50.104;14.614;2023-03-13T08:54:57;97705.51;;;13.32;38.47
75945;BME280;64628;50.104;14.614;2023-03-13T08:57:22;97700.16;;;12.43;39.43
75945;BME280;64628;50.104;14.614;2023-03-13T08:59:47;97697.62;;;12.27;39.69
75945;BME280;64628;50.104;14.614;2023-03-13T09:02:13;97699.49;;;12.83;39.47
75945;BME280;64628;50.104;14.614;2023-03-13T09:04:38;97692.36;;;12.97;38.67
75945;BME280;64628;50.104;14.614;2023-03-13T09:07:04;97684.80;;;12.58;39.04
75945;BME280;64628;50.104;14.614;2023-03-13T09:09:29;97682.12;;;12.88;38.85
75945;BME280;64628;50.104;14.614;2023-03-13T09:11:54;97685.74;;;12.90;38.41
75945;BME280;64628;50.104;14.614;2023-03-13T09:14:19;97674.22;;;12.77;38.84
75945;BME280;64628;50.104;14.614;2023-03-13T09:16:45;97682.22;;;12.56;39.16
75945;BME280;64628;50.104;14.614;2023-03-13T09:19:10;97684.52;;;12.48;39.16
75945;BME280;64628;50.104;14.614;2023-03-13T09:21:35;97688.61;;;12.88;39.28
75945;BME280;64628;50.104;14.614;2023-03-13T09:24:01;97684.32;;;12.63;39.63
75945;BME280;64628;50.104;14.614;2023-03-13T09:26:27;97685.96;;;11.99;41.03
75945;BME280;64628;50.104;14.614;2023-03-13T09:28:52;97681.66;;;12.05;41.24
75945;BME280;64628;50.104;14.614;2023-03-13T09:31:18;97694.50;;;12.34;41.03
75945;BME280;64628;50.104;14.614;2023-03-13T09:33:44;97693.20;;;12.33;40.93
75945;BME280;64628;50.104;14.614;2023-03-13T09:36:08;97694.51;;;11.85;41.58
75945;BME280;64628;50.104;14.614;2023-03-13T09:38:33;97699.63;;;12.45;40.88
75945;BME280;64628;50.104;14.614;2023-03-13T09:41:03;97693.62;;;11.87;41.68
75945;BME280;64628;50.104;14.614;2023-03-13T09:43:33;97704.52;;;11.87;41.64
75945;BME280;64628;50.104;14.614;2023-03-13T09:45:52;97698.48;;;11.87;41.60
75945;BME280;64628;50.104;14.614;2023-03-13T09:48:22;97692.46;;;11.53;42.59
75945;BME280;64628;50.104;14.614;2023-03-13T09:50:44;97690.47;;;12.04;41.83
75945;BME280;64628;50.104;14.614;2023-03-13T09:53:11;97702.53;;;11.56;42.14
75945;BME280;64628;50.104;14.614;2023-03-13T09:55:31;97687.52;;;11.54;42.55
75945;BME280;64628;50.104;14.614;2023-03-13T09:58:01;97696.43;;;11.62;42.26
75945;BME280;64628;50.104;14.614;2023-03-13T10:00:24;97684.55;;;12.18;41.33
75945;BME280;64628;50.104;14.614;2023-03-13T10:02:53;97678.18;;;12.71;40.14
75945;BME280;64628;50.104;14.614;2023-03-13T10:05:16;97666.76;;;13.46;39.12
75945;BME280;64628;50.104;14.614;2023-03-13T10:07:37;97656.89;;;13.25;38.87
75945;BME280;64628;50.104;14.614;2023-03-13T10:10:05;97647.46;;;13.43;38.91
75945;BME280;64628;50.104;14.614;2023-03-13T10:12:29;97648.65;;;13.79;38.52
75945;BME280;64628;50.104;14.614;2023-03-13T10:15:02;97648.09;;;13.32;38.82
75945;BME280;64628;50.104;14.614;2023-03-13T10:17:25;97656.15;;;13.74;38.19
75945;BME280;64628;50.104;14.614;2023-03-13T10:19:44;97647.10;;;13.95;38.40
75945;BME280;64628;50.104;14.614;2023-03-13T10:22:14;97647.46;;;13.84;37.76
75945;BME280;64628;50.104;14.614;2023-03-13T10:24:39;97642.13;;;13.85;38.05
75945;BME280;64628;50.104;14.614;2023-03-13T10:26:59;97636.30;;;13.99;38.30
75945;BME280;64628;50.104;14.614;2023-03-13T10:29:26;97633.55;;;13.57;38.07
75945;BME280;64628;50.104;14.614;2023-03-13T10:31:56;97628.82;;;14.55;36.90
75945;BME280;64628;50.104;14.614;2023-03-13T10:34:15;97627.44;;;14.67;36.63
75945;BME280;64628;50.104;14.614;2023-03-13T10:36:42;97630.33;;;14.54;36.71
75945;BME280;64628;50.104;14.614;2023-03-13T10:39:11;97632.95;;;15.04;36.23
75945;BME280;64628;50.104;14.614;2023-03-13T10:41:35;97636.76;;;14.86;36.50
75945;BME280;64628;50.104;14.614;2023-03-13T10:43:59;97633.54;;;14.36;36.76
75945;BME280;64628;50.104;14.614;2023-03-13T10:46:26;97629.66;;;14.15;37.58
75945;BME280;64628;50.104;14.614;2023-03-13T10:48:47;97632.29;;;14.28;37.41
75945;BME280;64628;50.104;14.614;2023-03-13T10:51:19;97621.04;;;13.76;38.05
75945;BME280;64628;50.104;14.614;2023-03-13T10:53:37;97616.01;;;14.11;37.81
75945;BME280;64628;50.104;14.614;2023-03-13T10:56:09;97630.52;;;14.33;37.69
75945;BME280;64628;50.104;14.614;2023-03-13T10:58:33;97626.98;;;14.58;37.55
75945;BME280;64628;50.104;14.614;2023-03-13T11:03:23;97618.35;;;14.23;38.16
75945;BME280;64628;50.104;14.614;2023-03-13T11:05:53;97626.40;;;14.43;38.08
75945;BME280;64628;50.104;14.614;2023-03-13T11:10:35;97618.66;;;14.58;37.95
75945;BME280;64628;50.104;14.614;2023-03-13T11:13:00;97619.94;;;14.48;37.92
75945;BME280;64628;50.104;14.614;2023-03-13T11:15:30;97618.23;;;15.26;37.25
75945;BME280;64628;50.104;14.614;2023-03-13T11:17:56;97613.36;;;15.37;37.15
75945;BME280;64628;50.104;14.614;2023-03-13T11:20:22;97594.57;;;14.85;37.24
75945;BME280;64628;50.104;14.614;2023-03-13T11:22:50;97598.53;;;14.90;38.03
75945;BME280;64628;50.104;14.614;2023-03-13T11:25:19;97595.31;;;14.65;37.84
75945;BME280;64628;50.104;14.614;2023-03-13T11:27:37;97588.12;;;15.22;37.15
75945;BME280;64628;50.104;14.614;2023-03-13T11:30:07;97585.91;;;15.40;36.99
75945;BME280;64628;50.104;14.614;2023-03-13T11:32:28;97588.52;;;15.59;36.75
75945;BME280;64628;50.104;14.614;2023-03-13T11:34:51;97579.58;;;15.69;36.84
75945;BME280;64628;50.104;14.614;2023-03-13T11:37:15;97581.87;;;15.67;36.44
75945;BME280;64628;50.104;14.614;2023-03-13T11:39:47;97575.64;;;16.42;36.07
75945;BME280;64628;50.104;14.614;2023-03-13T11:42:07;97567.97;;;15.68;36.84
75945;BME280;64628;50.104;14.614;2023-03-13T11:44:30;97570.88;;;15.57;37.50
75945;BME280;64628;50.104;14.614;2023-03-13T11:47:09;97555.57;;;15.84;37.43
75945;BME280;64628;50.104;14.614;2023-03-13T11:49:30;97561.06;;;15.93;37.32
75945;BME280;64628;50.104;14.614;2023-03-13T11:51:58;97558.26;;;15.53;38.03
75945;BME280;64628;50.104;14.614;2023-03-13T11:56:40;97555.36;;;15.83;37.32
75945;BME280;64628;50.104;14.614;2023-03-13T11:59:20;97556.49;;;16.01;36.94
75945;BME280;64628;50.104;14.614;2023-03-13T12:01:29;97557.25;;;16.20;37.38
75945;BME280;64628;50.104;14.614;2023-03-13T12:03:57;97550.70;;;15.98;37.66
75945;BME280;64628;50.104;14.614;2023-03-13T12:06:24;97551.47;;;15.60;38.24
75945;BME280;64628;50.104;14.614;2023-03-13T12:08:44;97571.67;;;15.69;38.24
75945;BME280;64628;50.104;14.614;2023-03-13T12:11:14;97579.54;;;15.31;38.78
75945;BME280;64628;50.104;14.614;2023-03-13T12:13:35;97582.29;;;15.28;39.28
75945;BME280;64628;50.104;14.614;2023-03-13T12:15:59;97583.60;;;15.07;39.90
75945;BME280;64628;50.104;14.614;2023-03-13T12:18:28;97572.50;;;14.96;39.85
75945;BME280;64628;50.104;14.614;2023-03-13T12:20:53;97583.27;;;15.16;39.90
75945;BME280;64628;50.104;14.614;2023-03-13T12:23:17;97581.56;;;15.62;38.98
75945;BME280;64628;50.104;14.614;2023-03-13T12:25:44;97574.23;;;15.46;38.62
75945;BME280;64628;50.104;14.614;2023-03-13T12:28:14;97577.99;;;15.09;39.18
75945;BME280;64628;50.104;14.614;2023-03-13T12:30:35;97582.99;;;15.42;38.89
75945;BME280;64628;50.104;14.614;2023-03-13T12:33:01;97576.28;;;15.47;38.78
75945;BME280;64628;50.104;14.614;2023-03-13T12:35:23;97573.90;;;15.15;39.90
75945;BME280;64628;50.104;14.614;2023-03-13T12:37:49;97567.17;;;15.19;39.59
75945;BME280;64628;50.104;14.614;2023-03-13T12:40:15;97560.40;;;15.09;39.32
75945;BME280;64628;50.104;14.614;2023-03-13T12:42:44;97571.16;;;15.21;39.13
75945;BME280;64628;50.104;14.614;2023-03-13T12:45:00;97552.29;;;15.32;39.10
75945;BME280;64628;50.104;14.614;2023-03-13T12:47:30;97558.31;;;15.18;39.09